Time;durP1;ratioP1;P1;durP2;ratioP2;P2;SDS_P1;SDS_P2;PMS_P1;PMS_P2;Temp;Humidity;BMP_temperature;BMP_pressure;BME280_temperature;BME280_humidity;BME280_pressure;Samples;Min_cycle;Max_cycle;Signal;HPM_P1;HPM_P2
2022/10/05 00:00:57;;;;;;;;;;;;;;;14.30;100.00;101521.47;5044195;28;19932;-72
2022/10/05 00:03:23;;;;;;;;;;;;;;;14.30;100.00;101526.81;5028238;28;19952;-72
2022/10/05 00:05:49;;;;;;;;;;;;;;;14.29;100.00;101515.31;5048136;28;20006;-72
2022/10/05 00:08:14;;;;;;;;;;;;;;;14.28;100.00;101523.38;5044745;28;20002;-72
2022/10/05 00:10:40;;;;;;;;;;;;;;;14.28;100.00;101523.38;5046370;28;19925;-72
2022/10/05 00:13:16;;;;;;;;;;;;;;;14.27;100.00;101517.16;5047090;28;20326;-71
2022/10/05 00:15:42;;;;;;;;;;;;;;;14.25;100.00;101513.72;5046093;28;19929;-71
2022/10/05 00:18:12;;;;;;;;;;;;;;;14.25;100.00;101503.97;5048353;28;19929;-71
2022/10/05 00:20:37;;;;;;;;;;;;;;;14.25;100.00;101501.28;5046661;28;19928;-72
2022/10/05 00:23:03;;;;;;;;;;;;;;;14.24;100.00;101509.34;5047109;28;20549;-71
2022/10/05 00:25:28;;;;;;;;;;;;;;;14.24;100.00;101512.88;5062943;28;19993;-71
2022/10/05 00:27:55;;;;;;;;;;;;;;;14.24;100.00;101507.56;5047984;28;19927;-71
2022/10/05 00:30:21;;;;;;;;;;;;;;;14.23;100.00;101491.66;5045067;28;20037;-71
2022/10/05 00:32:46;;;;;;;;;;;;;;;14.23;100.00;101495.16;5047047;28;19929;-71
2022/10/05 00:35:12;;;;;;;;;;;;;;;14.23;100.00;101492.50;5045877;28;20179;-72
2022/10/05 00:37:40;;;;;;;;;;;;;;;14.23;100.00;101491.66;5046318;28;19924;-72
2022/10/05 00:40:24;;;;;;;;;;;;;;;14.23;100.00;101483.66;5048238;28;20404;-72
2022/10/05 00:43:09;;;;;;;;;;;;;;;14.21;100.00;101470.41;5044014;28;20457;-72
2022/10/05 00:45:42;;;;;;;;;;;;;;;14.20;100.00;101479.34;5045331;28;19959;-72
2022/10/05 00:48:15;;;;;;;;;;;;;;;14.19;100.00;101472.31;5044952;28;19935;-72
2022/10/05 00:50:48;;;;;;;;;;;;;;;14.15;100.00;101462.75;5043343;28;20629;-72
2022/10/05 00:53:20;;;;;;;;;;;;;;;14.15;100.00;101460.06;5043771;28;19944;-72
2022/10/05 00:55:54;;;;;;;;;;;;;;;14.15;100.00;101453.91;5046959;28;19947;-72
2022/10/05 00:58:38;;;;;;;;;;;;;;;14.15;100.00;101454.75;5043771;28;19937;-72
2022/10/05 01:01:03;;;;;;;;;;;;;;;14.13;100.00;101440.66;5044644;28;19928;-71
2022/10/05 01:03:38;;;;;;;;;;;;;;;14.14;100.00;101458.34;5046477;28;19924;-71
2022/10/05 01:06:07;;;;;;;;;;;;;;;14.11;100.00;101453.19;5059880;28;20363;-71
2022/10/05 01:08:39;;;;;;;;;;;;;;;14.11;100.00;101454.03;5043444;28;19917;-71
2022/10/05 01:11:11;;;;;;;;;;;;;;;14.10;100.00;101454.13;5060944;28;19925;-71
2022/10/05 01:13:39;;;;;;;;;;;;;;;14.09;100.00;101447.06;5059349;28;19927;-72
2022/10/05 01:16:08;;;;;;;;;;;;;;;14.09;100.00;101445.28;5046137;28;20175;-72
2022/10/05 01:18:45;;;;;;;;;;;;;;;14.07;100.00;101436.53;5049781;28;19931;-72
2022/10/05 01:21:11;;;;;;;;;;;;;;;14.08;100.00;101448.03;5044906;28;19928;-72
2022/10/05 01:23:48;;;;;;;;;;;;;;;14.09;100.00;101447.06;5045394;28;19934;-72
2022/10/05 01:26:13;;;;;;;;;;;;;;;14.08;100.00;101443.56;5047151;28;20280;-73
2022/10/05 01:28:44;;;;;;;;;;;;;;;14.06;100.00;101440.09;5045424;28;19925;-71
2022/10/05 01:31:35;;;;;;;;;;;;;;;14.07;100.00;101441.84;5045160;28;19928;-72
2022/10/05 01:34:07;;;;;;;;;;;;;;;14.07;100.00;101440.97;5043639;28;19935;-72
2022/10/05 01:36:35;;;;;;;;;;;;;;;14.07;100.00;101420.56;5045545;28;20410;-72
2022/10/05 01:39:04;;;;;;;;;;;;;;;14.07;100.00;101411.69;5044349;28;19947;-72
2022/10/05 01:41:45;;;;;;;;;;;;;;;14.07;100.00;101414.34;5043939;28;20365;-72
2022/10/05 01:44:18;;;;;;;;;;;;;;;14.06;100.00;101413.47;5044621;28;19956;-72
2022/10/05 01:47:01;;;;;;;;;;;;;;;14.07;100.00;101398.38;5043624;28;20305;-72
2022/10/05 01:49:37;;;;;;;;;;;;;;;14.09;100.00;101404.47;5077557;28;20455;-72
2022/10/05 01:52:21;;;;;;;;;;;;;;;14.10;100.00;101400.88;5044534;28;20018;-72
2022/10/05 01:54:56;;;;;;;;;;;;;;;14.10;100.00;101403.53;5046269;28;19964;-72
2022/10/05 01:57:26;;;;;;;;;;;;;;;14.12;100.00;101397.19;5043432;28;19928;-72
2022/10/05 02:00:10;;;;;;;;;;;;;;;14.13;100.00;101398.91;5046518;28;19924;-72
2022/10/05 02:02:37;;;;;;;;;;;;;;;14.16;100.00;101378.41;5044677;28;19929;-72
2022/10/05 02:05:07;;;;;;;;;;;;;;;14.18;100.00;101388.03;5060799;28;19928;-72
2022/10/05 02:07:40;;;;;;;;;;;;;;;14.19;100.00;101387.09;5045222;28;19924;-72
2022/10/05 02:10:13;;;;;;;;;;;;;;;14.20;100.00;101382.63;5046275;28;19924;-72
2022/10/05 02:12:39;;;;;;;;;;;;;;;14.20;100.00;101388.81;5050656;28;20371;-72
2022/10/05 02:15:27;;;;;;;;;;;;;;;14.21;100.00;101406.50;5048802;28;19929;-72
2022/10/05 02:17:55;;;;;;;;;;;;;;;14.22;100.00;101402.06;5048633;28;19994;-72
2022/10/05 02:20:24;;;;;;;;;;;;;;;14.20;100.00;101394.16;5048171;28;19933;-72
2022/10/05 02:22:51;;;;;;;;;;;;;;;14.21;100.00;101395.84;5048932;28;19931;-73
2022/10/05 02:25:17;;;;;;;;;;;;;;;14.22;100.00;101400.25;5064883;28;20005;-72
2022/10/05 02:27:45;;;;;;;;;;;;;;;14.21;100.00;101390.53;5048154;28;19932;-72
2022/10/05 02:30:10;;;;;;;;;;;;;;;14.20;100.00;101391.47;5048804;28;19940;-72
2022/10/05 02:32:39;;;;;;;;;;;;;;;14.21;100.00;101397.66;5047250;28;20022;-71
2022/10/05 02:35:08;;;;;;;;;;;;;;;14.19;100.00;101387.09;5046891;28;19932;-71
2022/10/05 02:37:33;;;;;;;;;;;;;;;14.20;100.00;101390.59;5046730;28;20434;-71
2022/10/05 02:40:03;;;;;;;;;;;;;;;14.19;100.00;101387.09;5047946;28;19924;-71
2022/10/05 02:42:30;;;;;;;;;;;;;;;14.17;100.00;101380.13;5046705;28;19925;-71
2022/10/05 02:45:15;;;;;;;;;;;;;;;14.16;100.00;101389.06;5063361;28;19924;-71
2022/10/05 02:48:12;;;;;;;;;;;;;;;14.14;100.00;101373.16;5046473;28;19983;-71
2022/10/05 02:50:58;;;;;;;;;;;;;;;14.12;100.00;101375.88;5035588;28;21450;-72
2022/10/05 02:53:26;;;;;;;;;;;;;;;14.13;100.00;101379.44;5043248;28;19924;-71
2022/10/05 02:56:10;;;;;;;;;;;;;;;14.13;100.00;101387.41;5065251;28;19939;-71
2022/10/05 02:58:57;;;;;;;;;;;;;;;14.12;100.00;101378.56;5048928;28;19970;-71
2022/10/05 03:01:41;;;;;;;;;;;;;;;14.11;100.00;101376.84;5047116;28;20391;-71
2022/10/05 03:04:10;;;;;;;;;;;;;;;14.11;100.00;101381.31;5049140;28;21378;-71
2022/10/05 03:06:41;;;;;;;;;;;;;;;14.10;100.00;101377.78;5047832;28;19929;-72
2022/10/05 03:09:06;;;;;;;;;;;;;;;14.09;100.00;101380.50;5046081;28;20046;-72
2022/10/05 03:11:51;;;;;;;;;;;;;;;14.07;100.00;101390.41;5047008;28;19935;-72
2022/10/05 03:14:17;;;;;;;;;;;;;;;14.06;100.00;101392.19;5049321;28;20196;-72
2022/10/05 03:16:46;;;;;;;;;;;;;;;14.08;100.00;101377.00;5047864;28;19928;-73
2022/10/05 03:19:30;;;;;;;;;;;;;;;14.10;100.00;101371.59;5047296;28;19932;-72
2022/10/05 03:22:04;;;;;;;;;;;;;;;14.10;100.00;101360.94;5045420;28;19986;-72
2022/10/05 03:24:39;;;;;;;;;;;;;;;14.09;100.00;101361.88;5046157;28;20015;-72
2022/10/05 03:27:07;;;;;;;;;;;;;;;14.10;100.00;101366.25;5046891;28;20379;-72
2022/10/05 03:29:36;;;;;;;;;;;;;;;14.09;100.00;101352.09;5048005;28;20336;-72
2022/10/05 03:32:14;;;;;;;;;;;;;;;14.09;100.00;101356.56;5047608;28;19924;-73
2022/10/05 03:34:58;;;;;;;;;;;;;;;14.08;100.00;101355.72;5045148;28;19928;-72
2022/10/05 03:37:27;;;;;;;;;;;;;;;14.10;100.00;101350.28;5047200;28;19955;-72
2022/10/05 03:39:55;;;;;;;;;;;;;;;14.07;100.00;101343.34;5046441;28;20624;-72
2022/10/05 03:42:26;;;;;;;;;;;;;;;14.07;100.00;101350.47;5046194;28;21288;-72
2022/10/05 03:44:54;;;;;;;;;;;;;;;14.09;100.00;101345.91;5046119;28;19931;-72
2022/10/05 03:47:20;;;;;;;;;;;;;;;14.09;100.00;101344.13;5045555;28;19928;-72
2022/10/05 03:49:48;;;;;;;;;;;;;;;14.09;100.00;101328.16;5046143;28;21276;-72
2022/10/05 03:52:15;;;;;;;;;;;;;;;14.10;100.00;101334.31;5047652;28;19963;-71
2022/10/05 03:54:43;;;;;;;;;;;;;;;14.10;100.00;101329.84;5045877;28;20387;-72
2022/10/05 03:57:10;;;;;;;;;;;;;;;14.11;100.00;101328.06;5047307;28;20476;-71
2022/10/05 03:59:40;;;;;;;;;;;;;;;14.11;100.00;101320.09;5046774;28;19932;-71
2022/10/05 04:02:06;;;;;;;;;;;;;;;14.11;100.00;101320.09;5044912;28;20703;-71
2022/10/05 04:04:40;;;;;;;;;;;;;;;14.11;100.00;101320.09;5045829;28;19936;-71
2022/10/05 04:07:05;;;;;;;;;;;;;;;14.10;100.00;101318.34;5045598;28;19928;-71
2022/10/05 04:09:32;;;;;;;;;;;;;;;14.10;100.00;101313.00;5028849;28;19960;-71
2022/10/05 04:12:04;;;;;;;;;;;;;;;14.07;100.00;101303.41;5063894;28;19928;-71
2022/10/05 04:14:32;;;;;;;;;;;;;;;14.06;100.00;101309.66;5047500;28;19928;-72
2022/10/05 04:16:58;;;;;;;;;;;;;;;14.07;100.00;101307.88;5062892;28;19924;-72
2022/10/05 04:19:27;;;;;;;;;;;;;;;14.06;100.00;101306.16;5062523;28;19929;-72
2022/10/05 04:22:08;;;;;;;;;;;;;;;14.06;100.00;101306.16;5047899;28;20016;-72
2022/10/05 04:24:41;;;;;;;;;;;;;;;14.05;100.00;101297.28;5046756;28;19932;-72
2022/10/05 04:27:08;;;;;;;;;;;;;;;14.06;100.00;101287.50;5048690;28;20367;-72
2022/10/05 04:29:40;;;;;;;;;;;;;;;14.05;100.00;101291.97;5029700;28;20028;-72
2022/10/05 04:32:14;;;;;;;;;;;;;;;14.05;100.00;101291.97;5044778;28;19928;-71
2022/10/05 04:34:46;;;;;;;;;;;;;;;14.05;100.00;101288.47;5044641;28;21354;-71
2022/10/05 04:37:22;;;;;;;;;;;;;;;14.05;100.00;101283.97;5062957;28;19978;-71
2022/10/05 04:39:54;;;;;;;;;;;;;;;14.06;100.00;101290.19;5045333;28;20027;-71
2022/10/05 04:42:19;;;;;;;;;;;;;;;14.05;100.00;101283.97;5045240;28;19983;-72
2022/10/05 04:45:04;;;;;;;;;;;;;;;14.05;100.00;101288.47;5078409;28;20391;-72
2022/10/05 04:47:29;;;;;;;;;;;;;;;14.04;100.00;101278.72;5047721;28;19929;-72
2022/10/05 04:50:13;;;;;;;;;;;;;;;14.03;100.00;101279.66;5046977;28;19932;-72
2022/10/05 04:52:57;;;;;;;;;;;;;;;14.03;100.00;101269.03;5047906;28;20436;-72
2022/10/05 04:55:41;;;;;;;;;;;;;;;14.02;100.00;101270.84;5047700;28;20005;-72
2022/10/05 04:58:15;;;;;;;;;;;;;;;14.02;100.00;101277.97;5048045;28;19967;-71
2022/10/05 05:00:44;;;;;;;;;;;;;;;14.04;100.00;101273.41;5047087;28;19924;-71
2022/10/05 05:03:14;;;;;;;;;;;;;;;14.04;100.00;101270.75;5046990;28;20050;-71
2022/10/05 05:05:42;;;;;;;;;;;;;;;14.05;100.00;101272.50;5047035;28;20022;-71
2022/10/05 05:08:15;;;;;;;;;;;;;;;14.05;100.00;101272.50;5046381;28;19924;-71
2022/10/05 05:10:41;;;;;;;;;;;;;;;14.05;100.00;101267.16;5045111;28;19929;-72
2022/10/05 05:13:24;;;;;;;;;;;;;;;14.06;100.00;101259.06;5044189;28;20006;-71
2022/10/05 05:15:53;;;;;;;;;;;;;;;14.06;100.00;101264.41;5044555;28;19943;-72
2022/10/05 05:18:27;;;;;;;;;;;;;;;14.05;100.00;101270.66;5044517;28;19935;-71
2022/10/05 05:20:59;;;;;;;;;;;;;;;14.06;100.00;101279.53;5043976;28;20303;-71
2022/10/05 05:23:27;;;;;;;;;;;;;;;14.06;100.00;101268.88;5045787;28;20006;-71
2022/10/05 05:26:13;;;;;;;;;;;;;;;14.06;100.00;101260.91;5046203;28;20034;-71
2022/10/05 05:28:41;;;;;;;;;;;;;;;14.05;100.00;101267.16;5030054;28;20325;-71
2022/10/05 05:31:06;;;;;;;;;;;;;;;14.05;100.00;101252.03;5027357;28;19928;-71
2022/10/05 05:33:55;;;;;;;;;;;;;;;14.04;100.00;101260.97;5046404;28;20397;-71
2022/10/05 05:36:20;;;;;;;;;;;;;;;14.04;100.00;101262.75;5041462;28;19929;-71
2022/10/05 05:38:51;;;;;;;;;;;;;;;14.03;100.00;101269.03;5046901;28;20291;-71
2022/10/05 05:41:21;;;;;;;;;;;;;;;14.03;100.00;101264.56;5061057;28;20043;-71
2022/10/05 05:43:46;;;;;;;;;;;;;;;14.04;100.00;101260.09;5046958;28;19971;-71
2022/10/05 05:46:24;;;;;;;;;;;;;;;14.04;100.00;101258.31;5050579;28;19999;-71
2022/10/05 05:48:50;;;;;;;;;;;;;;;14.03;100.00;101256.59;5049153;28;20338;-72
2022/10/05 05:51:26;;;;;;;;;;;;;;;14.03;100.00;101261.03;5050152;28;20009;-71
2022/10/05 05:53:59;;;;;;;;;;;;;;;14.02;100.00;101256.66;5050244;28;19996;-71
2022/10/05 05:56:31;;;;;;;;;;;;;;;14.01;100.00;101257.59;5047770;28;20299;-71
2022/10/05 05:59:05;;;;;;;;;;;;;;;14.01;100.00;101253.16;5066211;28;19959;-71
2022/10/05 06:01:54;;;;;;;;;;;;;;;13.99;100.00;101261.22;5047613;28;19971;-71
2022/10/05 06:04:45;;;;;;;;;;;;;;;13.99;100.00;101260.34;5047829;28;19932;-72
2022/10/05 06:07:18;;;;;;;;;;;;;;;13.97;100.00;101252.47;5048231;28;19948;-72
2022/10/05 06:10:03;;;;;;;;;;;;;;;13.96;100.00;101252.53;5046162;28;19924;-71
2022/10/05 06:12:32;;;;;;;;;;;;;;;13.97;100.00;101247.13;5048534;28;20341;-71
2022/10/05 06:15:04;;;;;;;;;;;;;;;13.97;100.00;101244.47;5047802;28;20132;-71
2022/10/05 06:17:34;;;;;;;;;;;;;;;13.98;100.00;101248.84;5047171;28;21070;-72
2022/10/05 06:20:00;;;;;;;;;;;;;;;13.98;100.00;101246.19;5048900;28;19931;-72
2022/10/05 06:22:32;;;;;;;;;;;;;;;13.99;100.00;101253.22;5047379;28;20363;-72
2022/10/05 06:25:10;;;;;;;;;;;;;;;13.98;100.00;101248.84;5047666;28;19929;-72
2022/10/05 06:27:42;;;;;;;;;;;;;;;13.99;100.00;101261.22;5049757;28;19928;-72
2022/10/05 06:30:16;;;;;;;;;;;;;;;14.01;100.00;101245.19;5049334;28;19940;-72
2022/10/05 06:33:01;;;;;;;;;;;;;;;14.00;100.00;101243.44;5032326;28;19928;-72
2022/10/05 06:35:45;;;;;;;;;;;;;;;14.01;100.00;101250.50;5049474;28;19924;-72
2022/10/05 06:38:10;;;;;;;;;;;;;;;14.03;100.00;101242.41;5049542;28;20359;-72
2022/10/05 06:41:02;;;;;;;;;;;;;;;14.04;100.00;101244.13;5048912;28;20276;-72
2022/10/05 06:43:50;;;;;;;;;;;;;;;14.05;100.00;101253.84;5026005;28;19935;-72
2022/10/05 06:46:28;;;;;;;;;;;;;;;14.05;100.00;101251.19;5044620;28;19932;-72
2022/10/05 06:48:58;;;;;;;;;;;;;;;14.05;100.00;101254.69;5047435;28;20639;-72
2022/10/05 06:51:29;;;;;;;;;;;;;;;14.05;100.00;101261.84;5048199;28;19932;-72
2022/10/05 06:54:04;;;;;;;;;;;;;;;14.04;100.00;101257.44;5049879;28;19935;-72
2022/10/05 06:56:30;;;;;;;;;;;;;;;14.04;100.00;101254.78;5047792;28;19929;-72
2022/10/05 06:59:08;;;;;;;;;;;;;;;14.04;100.00;101249.44;5049191;28;20429;-72
2022/10/05 07:01:51;;;;;;;;;;;;;;;14.04;100.00;101254.78;5049253;28;19928;-72
2022/10/05 07:04:17;;;;;;;;;;;;;;;14.05;100.00;101246.72;5046067;28;20003;-73
2022/10/05 07:06:43;;;;;;;;;;;;;;;14.08;100.00;101246.56;5046210;28;19924;-72
2022/10/05 07:09:32;;;;;;;;;;;;;;;14.09;100.00;101234.97;5060280;27;19925;-72
2022/10/05 07:12:18;;;;;;;;;;;;;;;14.11;100.00;101250.88;5041148;28;19928;-71
2022/10/05 07:15:02;;;;;;;;;;;;;;;14.13;100.00;101233.00;5045964;28;19931;-72
2022/10/05 07:18:06;;;;;;;;;;;;;;;14.16;100.00;101223.97;5049042;28;19978;-72
2022/10/05 07:20:44;;;;;;;;;;;;;;;14.20;100.00;101233.50;5029455;28;19959;-71
2022/10/05 07:23:24;;;;;;;;;;;;;;;14.22;100.00;101221.81;5037063;28;20355;-72
2022/10/05 07:25:57;;;;;;;;;;;;;;;14.26;100.00;101225.19;5041571;28;21034;-72
2022/10/05 07:28:25;;;;;;;;;;;;;;;14.28;100.00;101218.00;5047094;28;19947;-72
2022/10/05 07:30:55;;;;;;;;;;;;;;;14.29;100.00;101219.69;5043645;28;19971;-73
2022/10/05 07:33:44;;;;;;;;;;;;;;;14.29;100.00;101222.38;5046732;28;19916;-72
2022/10/05 07:39:26;;;;;;;;;;;;;;;14.31;100.00;101222.25;5039168;28;19931;-72
2022/10/05 07:42:00;;;;;;;;;;;;;;;14.34;100.00;101232.75;5070044;28;19924;-72
2022/10/05 07:44:29;;;;;;;;;;;;;;;14.35;100.00;101221.16;5041287;28;19948;-72
2022/10/05 07:46:56;;;;;;;;;;;;;;;14.36;100.00;101228.19;5061796;28;20337;-72
2022/10/05 07:49:23;;;;;;;;;;;;;;;14.37;100.00;101219.25;5044050;28;20399;-71
2022/10/05 07:51:52;;;;;;;;;;;;;;;14.40;100.00;101232.41;5048579;28;19963;-71
2022/10/05 07:54:24;;;;;;;;;;;;;;;14.42;100.00;101211.88;5063493;28;19924;-71
2022/10/05 07:57:08;;;;;;;;;;;;;;;14.45;100.00;101221.50;5047794;28;19932;-71
2022/10/05 07:59:40;;;;;;;;;;;;;;;14.50;100.00;101224.78;5048014;28;19928;-71
2022/10/05 08:02:28;;;;;;;;;;;;;;;14.53;100.00;101214.81;5046694;28;19982;-71
2022/10/05 08:05:04;;;;;;;;;;;;;;;14.58;100.00;101201.22;5042088;28;19936;-71
2022/10/05 08:07:31;;;;;;;;;;;;;;;14.62;100.00;101204.56;5061585;28;19948;-71
2022/10/05 08:09:58;;;;;;;;;;;;;;;14.65;100.00;101210.59;5046452;28;19944;-71
2022/10/05 08:12:23;;;;;;;;;;;;;;;14.70;100.00;101199.66;5040884;28;19929;-71
2022/10/05 08:14:56;;;;;;;;;;;;;;;14.73;100.00;101206.63;5043336;28;19928;-72
2022/10/05 08:17:23;;;;;;;;;;;;;;;14.78;100.00;101205.44;5074500;28;19940;-71
2022/10/05 08:19:58;;;;;;;;;;;;;;;14.82;100.00;101202.59;5041701;28;20580;-72
2022/10/05 08:22:24;;;;;;;;;;;;;;;14.87;100.00;101197.88;5057916;28;20346;-71
2022/10/05 08:24:58;;;;;;;;;;;;;;;14.92;100.00;101201.97;5039199;28;21439;-71
2022/10/05 08:27:39;;;;;;;;;;;;;;;14.96;100.00;101194.66;5040046;28;19952;-70
2022/10/05 08:30:05;;;;;;;;;;;;;;;15.00;100.00;101204.22;5058164;28;19955;-73
2022/10/05 08:32:37;;;;;;;;;;;;;;;15.04;100.00;101187.06;5041278;28;20295;-72
2022/10/05 08:35:02;;;;;;;;;;;;;;;15.10;100.00;101206.31;5040585;28;20361;-71
2022/10/05 08:37:31;;;;;;;;;;;;;;;15.13;100.00;101185.66;5042503;28;19924;-71
2022/10/05 08:40:07;;;;;;;;;;;;;;;15.16;100.00;101195.28;5040836;28;20086;-72
2022/10/05 08:42:52;;;;;;;;;;;;;;;15.20;100.00;101183.50;5039741;28;19936;-72
2022/10/05 08:45:29;;;;;;;;;;;;;;;15.25;100.00;101178.72;5042571;28;19932;-71
2022/10/05 08:48:14;;;;;;;;;;;;;;;15.31;100.00;101177.53;5041735;28;19932;-71
2022/10/05 08:50:51;;;;;;;;;;;;;;;15.37;100.00;101182.50;5042105;28;20632;-72
2022/10/05 08:53:16;;;;;;;;;;;;;;;15.41;100.00;101177.84;5040154;28;20042;-74
2022/10/05 08:55:51;;;;;;;;;;;;;;;15.43;100.00;101178.59;5041291;28;20762;-73
2022/10/05 08:58:25;;;;;;;;;;;;;;;15.46;100.00;101186.38;5073611;28;20792;-74
2022/10/05 09:00:50;;;;;;;;;;;;;;;15.52;100.00;101170.00;5040034;28;19916;-73
2022/10/05 09:03:22;;;;;;;;;;;;;;;15.54;100.00;101168.13;5041527;28;19936;-73
2022/10/05 09:05:57;;;;;;;;;;;;;;;15.54;100.00;101178.81;5040208;28;20202;-73
2022/10/05 09:08:29;;;;;;;;;;;;;;;15.54;100.00;101168.13;5042982;28;19925;-73
2022/10/05 09:11:09;;;;;;;;;;;;;;;15.58;100.00;101174.97;5045856;28;19929;-73
2022/10/05 09:13:49;;;;;;;;;;;;;;;15.61;100.00;101168.59;5042917;28;20115;-73
2022/10/05 09:16:34;;;;;;;;;;;;;;;15.63;100.00;101165.84;5044359;28;19925;-73
2022/10/05 09:18:59;;;;;;;;;;;;;;;15.65;100.00;101169.25;5042639;28;19928;-72
2022/10/05 09:21:34;;;;;;;;;;;;;;;15.62;100.00;101172.97;5045200;28;19936;-72
2022/10/05 09:24:23;;;;;;;;;;;;;;;15.63;100.00;101171.16;5043044;28;19978;-72
2022/10/05 09:27:02;;;;;;;;;;;;;;;15.69;100.00;101166.28;5037779;28;20388;-72
2022/10/05 09:29:46;;;;;;;;;;;;;;;15.74;100.00;101171.34;5043240;28;19929;-71
2022/10/05 09:32:30;;;;;;;;;;;;;;;15.78;100.00;101175.56;5045247;28;19925;-72
2022/10/05 09:35:08;;;;;;;;;;;;;;;15.82;100.00;101169.06;5046123;28;20480;-72
2022/10/05 09:37:43;;;;;;;;;;;;;;;15.88;100.00;101173.16;5045424;28;19928;-72
2022/10/05 09:40:08;;;;;;;;;;;;;;;15.91;100.00;101169.44;5061067;28;20528;-71
2022/10/05 09:42:37;;;;;;;;;;;;;;;15.94;100.00;101177.28;5043778;28;20351;-72
2022/10/05 09:45:08;;;;;;;;;;;;;;;15.95;100.00;101182.53;5045058;28;20140;-72
2022/10/05 09:47:44;;;;;;;;;;;;;;;15.98;100.00;101173.47;5076480;28;19925;-71
2022/10/05 09:50:15;;;;;;;;;;;;;;;16.00;100.00;101176.91;5044656;28;20231;-72
2022/10/05 09:52:43;;;;;;;;;;;;;;;16.02;100.00;101173.19;5045741;28;19932;-72
2022/10/05 09:55:15;;;;;;;;;;;;;;;16.01;100.00;101179.47;5044917;28;19929;-72
2022/10/05 09:57:59;;;;;;;;;;;;;;;16.01;100.00;101159.91;5042191;28;19929;-72
2022/10/05 10:00:37;;;;;;;;;;;;;;;15.99;100.00;101185.88;5046251;28;19936;-72
2022/10/05 10:03:06;;;;;;;;;;;;;;;16.00;100.00;101176.91;5045592;28;20118;-72
2022/10/05 10:05:32;;;;;;;;;;;;;;;16.01;100.00;101178.59;5043035;28;19924;-72
2022/10/05 10:08:21;;;;;;;;;;;;;;;16.00;100.00;101172.44;5044942;28;20371;-72
2022/10/05 10:10:52;;;;;;;;;;;;;;;15.94;100.00;101172.81;5043266;28;19929;-72
2022/10/05 10:13:36;;;;;;;;;;;;;;;15.93;100.00;101164.91;5043442;28;19934;-72
2022/10/05 10:16:34;;;;;;;;;;;;;;;15.94;100.00;101164.81;5043823;28;19931;-72
2022/10/05 10:19:03;;;;;;;;;;;;;;;15.94;100.00;101166.59;5030603;28;19929;-72
2022/10/05 10:21:47;;;;;;;;;;;;;;;15.93;100.00;101168.44;5042050;28;19933;-72
2022/10/05 10:24:32;;;;;;;;;;;;;;;15.92;100.00;101165.84;5047733;28;19924;-72
2022/10/05 10:27:09;;;;;;;;;;;;;;;15.90;100.00;101168.56;5045123;28;19932;-71
2022/10/05 10:29:35;;;;;;;;;;;;;;;15.87;100.00;101174.97;5043481;28;19984;-72
2022/10/05 10:32:24;;;;;;;;;;;;;;;15.82;100.00;101166.41;5046510;28;19935;-72
2022/10/05 10:34:49;;;;;;;;;;;;;;;15.81;100.00;101164.69;5043908;28;20356;-72
2022/10/05 10:37:33;;;;;;;;;;;;;;;15.80;100.00;101162.13;5047594;28;19925;-72
2022/10/05 10:39:58;;;;;;;;;;;;;;;15.79;100.00;101150.56;5049140;28;19925;-72
2022/10/05 10:42:27;;;;;;;;;;;;;;;15.77;100.00;101162.28;5047694;28;19924;-72
2022/10/05 10:44:53;;;;;;;;;;;;;;;15.76;100.00;101137.44;5060711;28;19977;-71
2022/10/05 10:47:23;;;;;;;;;;;;;;;15.75;100.00;101159.75;5046683;28;19933;-72
2022/10/05 10:49:49;;;;;;;;;;;;;;;15.73;100.00;101161.63;5046330;28;19920;-72
2022/10/05 10:52:23;;;;;;;;;;;;;;;15.72;100.00;101165.25;5044351;28;20350;-72
2022/10/05 10:55:04;;;;;;;;;;;;;;;15.71;100.00;101158.22;5047639;28;19925;-73
2022/10/05 10:57:48;;;;;;;;;;;;;;;15.67;100.00;101162.88;5045701;28;19936;-72
2022/10/05 11:00:34;;;;;;;;;;;;;;;15.66;100.00;101163.84;5048379;28;20431;-72
2022/10/05 11:03:07;;;;;;;;;;;;;;;15.65;100.00;101166.59;5041197;28;19928;-72
2022/10/05 11:05:38;;;;;;;;;;;;;;;15.61;100.00;101164.13;5047233;28;19963;-72
2022/10/05 11:08:19;;;;;;;;;;;;;;;15.59;100.00;101171.34;5048498;28;20002;-72
2022/10/05 11:10:49;;;;;;;;;;;;;;;15.55;100.00;101169.84;5048245;28;19985;-72
2022/10/05 11:13:15;;;;;;;;;;;;;;;15.54;100.00;101173.47;5045475;28;19944;-72
2022/10/05 11:15:59;;;;;;;;;;;;;;;15.50;100.00;101174.59;5048976;28;19925;-72
2022/10/05 11:18:31;;;;;;;;;;;;;;;15.48;100.00;101176.50;5048500;28;19920;-72
2022/10/05 11:21:15;;;;;;;;;;;;;;;15.46;100.00;101175.72;5033282;28;19924;-72
2022/10/05 11:23:40;;;;;;;;;;;;;;;15.43;100.00;101183.91;5047480;28;19939;-72
2022/10/05 11:26:25;;;;;;;;;;;;;;;15.43;100.00;101181.25;5048007;28;20307;-72
2022/10/05 11:28:53;;;;;;;;;;;;;;;15.43;100.00;101175.91;5046086;28;20422;-72
2022/10/05 11:31:42;;;;;;;;;;;;;;;15.40;100.00;101176.09;5047169;28;19929;-72
2022/10/05 11:34:07;;;;;;;;;;;;;;;15.38;100.00;101170.00;5024896;28;19947;-72
2022/10/05 11:36:52;;;;;;;;;;;;;;;15.37;100.00;101168.28;5045546;28;19928;-72
2022/10/05 11:39:23;;;;;;;;;;;;;;;15.37;100.00;101165.63;5048103;28;19934;-72
2022/10/05 11:41:48;;;;;;;;;;;;;;;15.38;100.00;101175.34;5045451;28;19924;-72
2022/10/05 11:44:14;;;;;;;;;;;;;;;15.36;100.00;101162.06;5045605;28;19982;-73
2022/10/05 11:46:46;;;;;;;;;;;;;;;15.35;100.00;101165.69;5047080;28;19992;-72
2022/10/05 11:49:11;;;;;;;;;;;;;;;15.33;100.00;101171.16;5043771;28;20546;-72
2022/10/05 11:51:47;;;;;;;;;;;;;;;15.33;100.00;101160.47;5045797;28;19932;-72
2022/10/05 11:54:18;;;;;;;;;;;;;;;15.33;100.00;101151.63;5045602;28;19925;-72
2022/10/05 11:56:44;;;;;;;;;;;;;;;15.34;100.00;101159.53;5044973;28;19974;-72
2022/10/05 11:59:17;;;;;;;;;;;;;;;15.34;100.00;101145.31;5046887;28;19929;-72
2022/10/05 12:02:09;;;;;;;;;;;;;;;15.34;100.00;101156.84;5044964;28;19928;-73
2022/10/05 12:04:53;;;;;;;;;;;;;;;15.36;100.00;101147.91;5042906;28;20299;-72
2022/10/05 12:07:27;;;;;;;;;;;;;;;15.37;100.00;101144.28;5044982;28;19936;-74
2022/10/05 12:10:20;;;;;;;;;;;;;;;15.36;100.00;101137.22;5045970;28;20053;-74
2022/10/05 12:13:04;;;;;;;;;;;;;;;15.38;100.00;101135.31;5045215;28;20295;-74
2022/10/05 12:15:42;;;;;;;;;;;;;;;15.38;100.00;101129.97;5079252;28;20338;-74
2022/10/05 12:18:32;;;;;;;;;;;;;;;15.39;100.00;101135.22;5045194;28;19975;-73
2022/10/05 12:21:00;;;;;;;;;;;;;;;15.39;100.00;101129.03;5048285;28;20441;-73
2022/10/05 12:23:36;;;;;;;;;;;;;;;15.38;100.00;101130.84;5046618;28;19932;-73
2022/10/05 12:26:03;;;;;;;;;;;;;;;15.39;100.00;101131.69;5047039;28;19925;-73
2022/10/05 12:28:55;;;;;;;;;;;;;;;15.40;100.00;101123.59;5044571;28;19929;-73
2022/10/05 12:31:23;;;;;;;;;;;;;;;15.41;100.00;101114.66;5034076;28;20074;-73
2022/10/05 12:33:58;;;;;;;;;;;;;;;15.44;100.00;101110.94;5046701;28;19924;-73
2022/10/05 12:36:29;;;;;;;;;;;;;;;15.46;100.00;101095.69;5046735;28;19924;-73
2022/10/05 12:39:02;;;;;;;;;;;;;;;15.47;100.00;101108.06;5078400;28;19929;-73
2022/10/05 12:41:47;;;;;;;;;;;;;;;15.51;100.00;101116.75;5044489;28;19962;-73
2022/10/05 12:44:40;;;;;;;;;;;;;;;15.53;100.00;101104.19;5035126;28;19925;-72
2022/10/05 12:47:15;;;;;;;;;;;;;;;15.55;100.00;101110.25;5031047;28;20018;-73
2022/10/05 12:49:43;;;;;;;;;;;;;;;15.55;100.00;101103.13;5044906;28;19932;-72
2022/10/05 12:52:18;;;;;;;;;;;;;;;15.56;100.00;101096.84;5045803;28;19929;-72
2022/10/05 12:54:52;;;;;;;;;;;;;;;15.58;100.00;101088.75;5046384;28;19997;-72
2022/10/05 12:57:18;;;;;;;;;;;;;;;15.61;100.00;101084.06;5045504;28;20444;-72
2022/10/05 12:59:49;;;;;;;;;;;;;;;15.66;100.00;101077.56;5061580;28;19937;-73
2022/10/05 13:02:38;;;;;;;;;;;;;;;15.69;100.00;101074.72;5044332;28;19974;-73
2022/10/05 13:05:06;;;;;;;;;;;;;;;15.73;100.00;101068.22;5041980;28;19928;-72